Orangeville, Utah
Current Conditions -  °F | °C
As of 2:53 AM on Saturday 25 Oct 2014 (Local Time) from KPUC Reporting Station
Clear Clear  
Wind Chill: 44°   Ceiling: Unl
Heat Index: 47°   Visibility: 10mi
Dew Point: 32°   Wind: 6mph
Humidity: 56%   Direction: 40°NE
Pressure: 30.27"   Gusts: NA
Location:  39.23°N, 111.05°W
Report Text: KPUC 250853Z AUTO 04005KT 10SM CLR 08/00 A3027 RMK AO2 SLP216 T00830000 56002 TSNO
Loading
Personal Weather Stations






























Interactive Weather Map
Tropical Storm Tracking
New forecast layout! Learn more

10-Day Weather Forecast

Advertisements
Track Severe Weather on mobile